Time;durP1;ratioP1;P1;durP2;ratioP2;P2;SDS_P1;SDS_P2;PMS_P1;PMS_P2;Temp;Humidity;BMP_temperature;BMP_pressure;BME280_temperature;BME280_humidity;BME280_pressure;Samples;Min_cycle;Max_cycle;Signal;HPM_P1;HPM_P2
2021/03/12 00:01:14;;;;;;;0.40;0.40;;;8.00;99.90;;;;;;5073836;28;20305;-72
2021/03/12 00:03:40;;;;;;;0.60;0.60;;;8.00;99.90;;;;;;5073561;28;20198;-74
2021/03/12 00:06:09;;;;;;;0.88;0.40;;;8.00;99.90;;;;;;5072902;28;20216;-72
2021/03/12 00:08:38;;;;;;;2.47;0.60;;;8.10;99.90;;;;;;5072836;28;20294;-72
2021/03/12 00:11:05;;;;;;;0.50;0.50;;;8.10;99.90;;;;;;5072874;28;20211;-74
2021/03/12 00:13:32;;;;;;;0.90;0.60;;;8.10;99.90;;;;;;5073708;28;20240;-74
2021/03/12 00:15:59;;;;;;;0.65;0.50;;;8.20;99.90;;;;;;5073229;28;20219;-74
2021/03/12 00:18:34;;;;;;;0.88;0.52;;;8.20;99.90;;;;;;5073752;28;20203;-75
2021/03/12 00:21:02;;;;;;;0.77;0.65;;;8.20;99.90;;;;;;5074166;28;20296;-73
2021/03/12 00:23:28;;;;;;;0.60;0.55;;;8.20;99.90;;;;;;5074061;28;20228;-73
2021/03/12 00:25:55;;;;;;;0.73;0.50;;;8.30;99.90;;;;;;5073294;28;20244;-74
2021/03/12 00:28:21;;;;;;;0.60;0.60;;;8.30;99.90;;;;;;5073305;28;20686;-74
2021/03/12 00:30:49;;;;;;;2.67;0.55;;;8.40;99.90;;;;;;5073283;28;20209;-73
2021/03/12 00:33:17;;;;;;;0.40;0.40;;;8.40;99.90;;;;;;5073353;28;20249;-72
2021/03/12 00:35:45;;;;;;;2.00;1.00;;;8.40;99.90;;;;;;5073191;28;20306;-73
2021/03/12 00:38:13;;;;;;;1.27;0.50;;;8.40;99.90;;;;;;5073144;28;20199;-72
2021/03/12 00:40:44;;;;;;;1.05;0.70;;;8.50;99.90;;;;;;5073736;28;20270;-73
2021/03/12 00:43:10;;;;;;;2.50;0.45;;;8.50;99.90;;;;;;5073910;28;20318;-74
2021/03/12 00:45:38;;;;;;;1.52;0.60;;;8.60;99.90;;;;;;5073398;28;20664;-72
2021/03/12 00:48:06;;;;;;;1.17;0.63;;;8.60;99.90;;;;;;5073257;28;20198;-73
2021/03/12 00:50:35;;;;;;;2.08;0.60;;;8.60;99.90;;;;;;5073762;28;20199;-73
2021/03/12 00:53:02;;;;;;;1.02;0.60;;;8.50;99.90;;;;;;5073447;28;20226;-73
2021/03/12 00:55:28;;;;;;;1.50;0.52;;;8.50;99.90;;;;;;5073887;28;20223;-73
2021/03/12 00:57:54;;;;;;;0.40;0.40;;;8.60;99.90;;;;;;5073213;28;20687;-74
2021/03/12 01:00:22;;;;;;;3.05;0.60;;;8.60;99.90;;;;;;5073131;28;20211;-74
2021/03/12 01:02:50;;;;;;;1.08;0.45;;;8.70;99.90;;;;;;5073798;28;20218;-76
2021/03/12 01:05:18;;;;;;;1.00;0.50;;;8.70;99.90;;;;;;5073078;28;20195;-76
2021/03/12 01:07:45;;;;;;;2.65;0.70;;;8.70;99.90;;;;;;5072788;28;20225;-73
2021/03/12 01:10:13;;;;;;;0.80;0.50;;;8.70;99.90;;;;;;5072430;28;20292;-74
2021/03/12 01:12:40;;;;;;;0.88;0.70;;;8.80;99.90;;;;;;5073266;28;20708;-75
2021/03/12 01:15:09;;;;;;;1.70;0.57;;;8.80;99.90;;;;;;5072228;28;20318;-75
2021/03/12 01:17:35;;;;;;;0.65;0.50;;;8.80;99.90;;;;;;5073011;28;20286;-73
2021/03/12 01:20:02;;;;;;;2.95;0.60;;;8.80;99.90;;;;;;5073772;28;20289;-74
2021/03/12 01:22:29;;;;;;;0.85;0.50;;;8.80;99.90;;;;;;5079849;28;20257;-74
2021/03/12 01:24:56;;;;;;;1.75;0.45;;;8.80;99.90;;;;;;5078027;28;20206;-77
2021/03/12 01:27:22;;;;;;;1.80;0.57;;;8.70;99.90;;;;;;5079165;28;20203;-76
2021/03/12 01:29:48;;;;;;;0.50;0.50;;;8.70;99.90;;;;;;5080191;28;20209;-76
2021/03/12 01:32:18;;;;;;;0.60;0.50;;;8.70;99.90;;;;;;5079793;28;20250;-73
2021/03/12 01:34:44;;;;;;;1.02;0.50;;;8.70;99.90;;;;;;5078602;28;20389;-73
2021/03/12 01:37:10;;;;;;;0.90;0.50;;;8.70;99.90;;;;;;5077098;28;20206;-72
2021/03/12 01:39:37;;;;;;;1.85;0.50;;;8.70;99.90;;;;;;5076769;28;20240;-72
2021/03/12 01:42:04;;;;;;;0.68;0.63;;;8.70;99.90;;;;;;5076215;28;20707;-72
2021/03/12 01:44:31;;;;;;;1.77;0.77;;;8.70;99.90;;;;;;5077401;28;20683;-73
2021/03/12 01:46:57;;;;;;;1.05;0.50;;;8.70;99.90;;;;;;5077982;28;20288;-73
2021/03/12 01:49:23;;;;;;;0.70;0.60;;;8.70;99.90;;;;;;5077912;28;20222;-74
2021/03/12 01:51:50;;;;;;;0.70;0.50;;;8.70;99.90;;;;;;5075741;28;20280;-73
2021/03/12 01:54:16;;;;;;;3.85;0.63;;;8.80;99.90;;;;;;5076183;28;20202;-73
2021/03/12 01:56:44;;;;;;;0.50;0.50;;;8.90;99.90;;;;;;5075249;28;20664;-73
2021/03/12 01:59:10;;;;;;;0.75;0.60;;;8.90;99.90;;;;;;5075344;28;20298;-74
2021/03/12 02:01:37;;;;;;;0.50;0.50;;;8.90;99.90;;;;;;5075576;28;20704;-74
2021/03/12 02:04:04;;;;;;;1.30;0.80;;;8.70;99.90;;;;;;5075740;28;20279;-74
2021/03/12 02:06:30;;;;;;;1.95;0.63;;;8.60;99.90;;;;;;5074855;28;20203;-73
2021/03/12 02:08:56;;;;;;;0.77;0.45;;;8.50;99.90;;;;;;5075437;28;20289;-73
2021/03/12 02:11:23;;;;;;;2.05;0.70;;;8.40;99.90;;;;;;5075710;28;20587;-74
2021/03/12 02:13:58;;;;;;;0.82;0.60;;;8.40;99.90;;;;;;5077040;28;20291;-74
2021/03/12 02:16:29;;;;;;;0.73;0.73;;;8.40;99.90;;;;;;5075293;28;20320;-73
2021/03/12 02:19:00;;;;;;;1.02;0.70;;;8.30;99.90;;;;;;5075783;28;20202;-73
2021/03/12 02:21:34;;;;;;;0.50;0.50;;;8.30;99.90;;;;;;5075374;28;20225;-73
2021/03/12 02:24:08;;;;;;;0.60;0.52;;;8.20;99.90;;;;;;5075585;28;20297;-74
2021/03/12 02:26:55;;;;;;;1.00;0.60;;;8.10;99.90;;;;;;5074801;28;20201;-73
2021/03/12 02:29:23;;;;;;;2.50;0.80;;;8.20;99.90;;;;;;5075409;28;20293;-74
2021/03/12 02:31:51;;;;;;;0.50;0.50;;;8.20;99.90;;;;;;5074600;28;20272;-75
2021/03/12 02:34:19;;;;;;;0.80;0.50;;;8.10;99.90;;;;;;5075309;28;20290;-77
2021/03/12 02:36:49;;;;;;;0.70;0.50;;;8.00;99.90;;;;;;5074576;28;20271;-77
2021/03/12 02:39:19;;;;;;;1.13;0.68;;;8.00;99.90;;;;;;5074651;28;20210;-77
2021/03/12 02:41:47;;;;;;;0.75;0.60;;;8.00;99.90;;;;;;5075326;28;20276;-73
2021/03/12 02:44:15;;;;;;;3.88;0.68;;;8.00;99.90;;;;;;5075212;28;20259;-77
2021/03/12 02:46:42;;;;;;;0.70;0.50;;;8.00;99.90;;;;;;5074593;28;20248;-77
2021/03/12 02:49:12;;;;;;;1.05;0.57;;;7.90;99.90;;;;;;5074719;28;20208;-77
2021/03/12 02:51:38;;;;;;;3.10;0.80;;;8.00;99.90;;;;;;5075148;28;20218;-76
2021/03/12 02:54:05;;;;;;;0.57;0.50;;;7.90;99.90;;;;;;5076509;28;20206;-74
2021/03/12 02:56:32;;;;;;;1.02;0.50;;;7.90;99.90;;;;;;5085191;28;20278;-74
2021/03/12 02:58:59;;;;;;;0.63;0.63;;;7.90;99.90;;;;;;5083471;28;20285;-74
2021/03/12 03:01:27;;;;;;;1.65;1.00;;;7.90;99.90;;;;;;5086234;28;20344;-74
2021/03/12 03:03:55;;;;;;;1.08;0.73;;;7.90;99.90;;;;;;5086265;28;20301;-73
2021/03/12 03:06:22;;;;;;;0.98;0.60;;;7.90;99.90;;;;;;5084244;28;20194;-74
2021/03/12 03:08:48;;;;;;;0.88;0.60;;;7.90;99.90;;;;;;5085291;28;20250;-73
2021/03/12 03:11:16;;;;;;;0.70;0.70;;;7.90;99.90;;;;;;5085190;28;20278;-74
2021/03/12 03:13:45;;;;;;;2.88;0.55;;;7.90;99.90;;;;;;5080682;28;20191;-73
2021/03/12 03:16:15;;;;;;;1.77;0.70;;;7.90;99.90;;;;;;5083804;28;20275;-74
2021/03/12 03:18:44;;;;;;;0.90;0.70;;;7.90;99.90;;;;;;5083822;28;20290;-74
2021/03/12 03:21:10;;;;;;;3.70;0.98;;;7.90;99.90;;;;;;5082483;28;20332;-74
2021/03/12 03:23:39;;;;;;;1.40;0.88;;;7.90;99.90;;;;;;5075942;28;20211;-74
2021/03/12 03:26:05;;;;;;;0.85;0.40;;;7.90;99.90;;;;;;5075499;28;20198;-74
2021/03/12 03:28:31;;;;;;;0.50;0.50;;;7.90;99.90;;;;;;5075223;28;20207;-74
2021/03/12 03:31:00;;;;;;;2.20;0.63;;;8.00;99.90;;;;;;5075340;28;20198;-74
2021/03/12 03:33:26;;;;;;;1.65;0.80;;;7.90;99.90;;;;;;5075729;28;20207;-73
2021/03/12 03:35:53;;;;;;;1.25;0.57;;;8.00;99.90;;;;;;5075432;28;20313;-73
2021/03/12 03:38:20;;;;;;;1.10;0.55;;;7.90;99.90;;;;;;5075326;28;20209;-74
2021/03/12 03:40:46;;;;;;;0.60;0.40;;;8.00;99.90;;;;;;5075511;28;20202;-73
2021/03/12 03:43:15;;;;;;;1.67;0.60;;;7.90;99.90;;;;;;5075279;28;20271;-74
2021/03/12 03:45:43;;;;;;;1.90;0.75;;;7.80;99.90;;;;;;5075342;28;20255;-73
2021/03/12 03:48:12;;;;;;;1.05;0.60;;;7.80;99.90;;;;;;5075824;28;20287;-73
2021/03/12 03:50:40;;;;;;;0.80;0.60;;;7.80;99.90;;;;;;5075966;28;20295;-74
2021/03/12 03:53:08;;;;;;;0.60;0.50;;;7.80;99.90;;;;;;5074719;28;20223;-73
2021/03/12 03:55:36;;;;;;;1.30;0.63;;;7.80;99.90;;;;;;5076375;28;20261;-74
2021/03/12 03:58:04;;;;;;;0.85;0.40;;;7.80;99.90;;;;;;5075907;28;20207;-73
2021/03/12 04:00:31;;;;;;;2.17;0.65;;;7.80;99.80;;;;;;5075152;28;20301;-73
2021/03/12 04:02:59;;;;;;;1.90;0.50;;;7.80;99.40;;;;;;5075359;28;20222;-73
2021/03/12 04:05:26;;;;;;;5.20;0.60;;;7.80;99.10;;;;;;5075668;28;20610;-73
2021/03/12 04:07:53;;;;;;;0.60;0.55;;;7.70;98.10;;;;;;5075186;28;20202;-74
2021/03/12 04:10:21;;;;;;;0.68;0.40;;;7.80;98.40;;;;;;5075282;28;20339;-73
2021/03/12 04:12:48;;;;;;;0.80;0.65;;;7.70;97.50;;;;;;5075647;28;20608;-74
2021/03/12 04:15:16;;;;;;;0.88;0.63;;;7.70;97.60;;;;;;5075080;28;20257;-74
2021/03/12 04:17:44;;;;;;;1.20;0.65;;;7.70;97.50;;;;;;5075167;28;20252;-73
2021/03/12 04:20:12;;;;;;;2.95;1.00;;;7.70;97.10;;;;;;5074920;28;20553;-74
2021/03/12 04:22:40;;;;;;;0.90;0.65;;;7.70;96.60;;;;;;5074966;28;20295;-73
2021/03/12 04:25:07;;;;;;;1.08;0.80;;;7.70;96.60;;;;;;5074822;28;20285;-74
2021/03/12 04:27:36;;;;;;;1.48;0.60;;;7.70;96.60;;;;;;5074549;28;20207;-73
2021/03/12 04:30:03;;;;;;;0.40;0.40;;;7.70;96.40;;;;;;5074577;28;20289;-73
2021/03/12 04:32:30;;;;;;;3.05;0.70;;;7.80;96.70;;;;;;5074451;28;20261;-73
2021/03/12 04:34:56;;;;;;;2.05;0.55;;;7.70;95.80;;;;;;5075248;28;20203;-73
2021/03/12 04:37:24;;;;;;;2.08;0.63;;;7.70;95.50;;;;;;5074098;28;20293;-73
2021/03/12 04:39:52;;;;;;;0.50;0.50;;;7.80;95.00;;;;;;5073994;28;20667;-73
2021/03/12 04:42:18;;;;;;;2.63;0.77;;;7.80;95.20;;;;;;5074222;28;20267;-74
2021/03/12 04:44:46;;;;;;;1.13;0.55;;;7.90;95.60;;;;;;5074266;28;20210;-74
2021/03/12 04:47:12;;;;;;;1.30;0.82;;;7.90;96.00;;;;;;5073888;28;20203;-73
2021/03/12 04:49:39;;;;;;;0.50;0.50;;;7.90;95.00;;;;;;5073804;28;20240;-73
2021/03/12 04:52:05;;;;;;;2.03;0.80;;;7.90;94.70;;;;;;5073807;28;20254;-73
2021/03/12 04:54:33;;;;;;;1.15;0.65;;;7.90;94.60;;;;;;5075275;28;20199;-73
2021/03/12 04:57:00;;;;;;;1.70;0.80;;;7.80;94.90;;;;;;5073374;28;20316;-73
2021/03/12 04:59:27;;;;;;;1.23;0.52;;;7.90;95.10;;;;;;5074359;28;20290;-73
2021/03/12 05:01:54;;;;;;;0.60;0.60;;;7.80;94.90;;;;;;5074069;28;20556;-73
2021/03/12 05:04:21;;;;;;;0.98;0.60;;;7.80;95.10;;;;;;5073627;28;20301;-73
2021/03/12 05:06:48;;;;;;;3.90;1.55;;;7.80;94.90;;;;;;5073541;28;20530;-73
2021/03/12 05:09:15;;;;;;;1.40;0.80;;;7.90;94.90;;;;;;5073729;28;20202;-73
2021/03/12 05:11:43;;;;;;;4.32;0.80;;;7.90;94.90;;;;;;5073734;28;20227;-73
2021/03/12 05:14:10;;;;;;;2.10;1.05;;;7.90;94.40;;;;;;5074391;28;20290;-73
2021/03/12 05:16:36;;;;;;;2.53;0.75;;;7.90;94.20;;;;;;5073695;28;20218;-73
2021/03/12 05:19:03;;;;;;;0.80;0.60;;;7.90;94.70;;;;;;5073557;28;20328;-73
2021/03/12 05:21:30;;;;;;;5.05;1.17;;;7.80;94.20;;;;;;5073372;28;20230;-73
2021/03/12 05:23:57;;;;;;;7.22;1.13;;;7.80;94.40;;;;;;5073872;28;20298;-73
2021/03/12 05:26:24;;;;;;;5.25;1.95;;;7.80;94.10;;;;;;5073338;28;20207;-73
2021/03/12 05:28:53;;;;;;;1.45;0.80;;;7.80;94.50;;;;;;5073805;28;20682;-73
2021/03/12 05:31:20;;;;;;;1.45;0.68;;;7.80;94.30;;;;;;5073825;28;20237;-74
2021/03/12 05:33:46;;;;;;;1.60;0.75;;;7.80;94.60;;;;;;5074402;28;20211;-73
2021/03/12 05:36:13;;;;;;;5.88;1.05;;;7.80;94.60;;;;;;5073857;28;20223;-73
2021/03/12 05:38:40;;;;;;;1.67;0.70;;;7.80;94.90;;;;;;5073595;28;20293;-74
2021/03/12 05:41:06;;;;;;;1.75;0.77;;;7.80;95.10;;;;;;5075458;28;20238;-73
2021/03/12 05:43:33;;;;;;;1.02;0.70;;;7.80;95.10;;;;;;5074468;28;20205;-74
2021/03/12 05:46:00;;;;;;;1.45;0.77;;;7.80;95.00;;;;;;5072981;28;20211;-74
2021/03/12 05:48:27;;;;;;;1.70;0.68;;;7.80;95.10;;;;;;5073506;28;20222;-73
2021/03/12 05:50:53;;;;;;;0.52;0.52;;;7.90;95.30;;;;;;5073489;28;20203;-73
2021/03/12 05:53:20;;;;;;;5.00;2.38;;;7.90;95.20;;;;;;5073802;28;20236;-74
2021/03/12 05:55:47;;;;;;;2.05;1.33;;;7.90;95.10;;;;;;5073586;28;20219;-73
2021/03/12 05:58:13;;;;;;;1.77;0.85;;;7.90;95.10;;;;;;5073619;28;20199;-73
2021/03/12 06:00:39;;;;;;;3.83;0.63;;;7.90;95.20;;;;;;5073171;28;20716;-74
2021/03/12 06:03:06;;;;;;;2.10;0.60;;;7.90;95.30;;;;;;5073419;28;20229;-74
2021/03/12 06:05:33;;;;;;;2.33;0.85;;;7.90;95.30;;;;;;5073429;28;20199;-73
2021/03/12 06:07:59;;;;;;;3.25;1.58;;;7.90;95.50;;;;;;5074856;28;20310;-73
2021/03/12 06:10:26;;;;;;;0.80;0.77;;;7.90;95.90;;;;;;5077367;28;20647;-73
2021/03/12 06:12:55;;;;;;;0.63;0.63;;;7.80;95.70;;;;;;5077303;28;20226;-74
2021/03/12 06:15:32;;;;;;;0.80;0.60;;;7.80;96.00;;;;;;5076737;28;20215;-74
2021/03/12 06:17:59;;;;;;;1.10;0.70;;;7.80;95.90;;;;;;5076724;28;20255;-73
2021/03/12 06:20:25;;;;;;;2.00;0.95;;;7.80;96.10;;;;;;5077102;28;20252;-73
2021/03/12 06:22:54;;;;;;;0.85;0.52;;;7.70;96.10;;;;;;5076535;28;20225;-73
2021/03/12 06:25:22;;;;;;;0.40;0.30;;;7.70;96.30;;;;;;5077153;28;20203;-74
2021/03/12 06:27:52;;;;;;;1.20;0.60;;;7.70;96.70;;;;;;5076413;28;20541;-73
2021/03/12 06:30:20;;;;;;;2.47;1.05;;;7.70;97.00;;;;;;5076717;28;20534;-73
2021/03/12 06:32:49;;;;;;;1.75;0.77;;;7.70;96.90;;;;;;5076655;28;20229;-74
2021/03/12 06:35:16;;;;;;;2.05;1.13;;;7.80;97.20;;;;;;5076432;28;20219;-74
2021/03/12 06:37:45;;;;;;;1.30;0.60;;;7.80;97.20;;;;;;5075327;28;20529;-73
2021/03/12 06:40:23;;;;;;;1.23;0.70;;;7.80;97.30;;;;;;5076283;28;20572;-74
2021/03/12 06:43:09;;;;;;;1.60;0.82;;;7.90;97.40;;;;;;5076677;28;20227;-74
2021/03/12 06:46:02;;;;;;;1.70;0.73;;;7.80;97.40;;;;;;5075608;28;20327;-74
2021/03/12 06:48:30;;;;;;;1.77;0.80;;;7.80;97.70;;;;;;5076108;28;20647;-74
2021/03/12 06:50:58;;;;;;;2.47;0.95;;;7.80;98.10;;;;;;5076118;28;20230;-74
2021/03/12 06:53:27;;;;;;;1.00;0.77;;;7.80;98.50;;;;;;5075967;28;20294;-73
2021/03/12 06:55:55;;;;;;;1.30;0.70;;;7.80;98.70;;;;;;5076006;28;20218;-73
2021/03/12 06:58:23;;;;;;;2.38;0.90;;;7.70;98.40;;;;;;5076233;28;20280;-74
2021/03/12 07:00:49;;;;;;;1.65;0.70;;;7.70;98.50;;;;;;5076122;28;20199;-74
2021/03/12 07:03:28;;;;;;;1.92;0.70;;;7.70;98.80;;;;;;5075804;28;20685;-74
2021/03/12 07:06:05;;;;;;;1.85;0.80;;;7.70;98.60;;;;;;5075932;28;20545;-74
2021/03/12 07:08:34;;;;;;;1.95;0.60;;;7.80;98.80;;;;;;5075902;28;20339;-74
2021/03/12 07:11:01;;;;;;;2.60;1.23;;;7.80;98.90;;;;;;5076019;28;20289;-74
2021/03/12 07:13:29;;;;;;;2.83;0.80;;;7.70;99.30;;;;;;5075532;28;20207;-74
2021/03/12 07:15:58;;;;;;;4.32;0.88;;;7.60;99.70;;;;;;5075344;28;20223;-74
2021/03/12 07:18:25;;;;;;;0.88;0.70;;;7.60;99.90;;;;;;5075818;28;20214;-75
2021/03/12 07:20:51;;;;;;;4.95;0.85;;;7.60;99.90;;;;;;5075809;28;20253;-74
2021/03/12 07:23:20;;;;;;;1.23;0.70;;;7.60;99.90;;;;;;5075857;28;20222;-74
2021/03/12 07:25:47;;;;;;;2.78;1.27;;;7.70;99.90;;;;;;5075622;28;20206;-74
2021/03/12 07:28:15;;;;;;;2.60;0.60;;;7.70;99.90;;;;;;5074980;28;20305;-75
2021/03/12 07:30:44;;;;;;;0.43;0.35;;;7.80;99.90;;;;;;5074945;28;20210;-74
2021/03/12 07:33:11;;;;;;;1.13;0.82;;;7.80;99.90;;;;;;5075389;28;20229;-74
2021/03/12 07:35:38;;;;;;;0.60;0.40;;;7.90;99.90;;;;;;5075382;28;20225;-74
2021/03/12 07:38:07;;;;;;;1.05;0.50;;;8.00;99.90;;;;;;5075116;28;20213;-75
2021/03/12 07:40:34;;;;;;;0.60;0.60;;;8.00;99.90;;;;;;5074690;28;20221;-75
2021/03/12 07:43:01;;;;;;;0.88;0.50;;;8.10;99.90;;;;;;5075033;28;20261;-74
2021/03/12 07:45:29;;;;;;;5.80;0.80;;;8.20;99.90;;;;;;5074608;28;20202;-74
2021/03/12 07:47:56;;;;;;;1.95;0.63;;;8.10;99.90;;;;;;5074734;28;20293;-74
2021/03/12 07:50:25;;;;;;;1.00;0.80;;;8.10;99.90;;;;;;5075034;28;20602;-75
2021/03/12 07:52:53;;;;;;;0.60;0.60;;;8.10;99.90;;;;;;5075009;28;20229;-75
2021/03/12 07:55:48;;;;;;;0.70;0.50;;;8.20;99.90;;;;;;5074583;28;20207;-75
2021/03/12 07:58:54;;;;;;;1.88;0.60;;;8.20;99.90;;;;;;5074695;28;20558;-74
2021/03/12 08:01:21;;;;;;;5.20;0.93;;;8.20;99.90;;;;;;5074305;28;20696;-74
2021/03/12 08:03:50;;;;;;;1.00;0.65;;;8.20;99.90;;;;;;5074677;28;20647;-75
2021/03/12 08:06:33;;;;;;;0.90;0.77;;;8.20;99.90;;;;;;5074375;28;20195;-75
2021/03/12 08:08:59;;;;;;;1.08;0.60;;;8.30;99.90;;;;;;5074661;28;20202;-75
2021/03/12 08:11:29;;;;;;;2.97;0.70;;;8.30;99.90;;;;;;5074510;28;20223;-75
2021/03/12 08:14:13;;;;;;;3.38;0.47;;;8.40;99.90;;;;;;5074814;28;20199;-75
2021/03/12 08:17:17;;;;;;;0.88;0.80;;;8.40;99.90;;;;;;5073741;28;20424;-75
2021/03/12 08:19:47;;;;;;;3.25;1.00;;;8.50;99.90;;;;;;5074572;28;20202;-75
2021/03/12 08:22:43;;;;;;;1.67;0.80;;;8.40;99.90;;;;;;5073994;28;20688;-74
2021/03/12 08:25:11;;;;;;;0.98;0.50;;;8.60;99.90;;;;;;5074288;28;20199;-75
2021/03/12 08:27:42;;;;;;;0.77;0.70;;;8.70;99.90;;;;;;5073922;28;20214;-74
2021/03/12 08:30:11;;;;;;;1.30;0.70;;;8.90;99.90;;;;;;5073910;28;20209;-74
2021/03/12 08:32:44;;;;;;;2.72;0.80;;;9.10;99.90;;;;;;5074289;28;20634;-74
2021/03/12 08:35:37;;;;;;;1.20;0.80;;;9.20;99.90;;;;;;5073763;28;20249;-75
2021/03/12 08:38:05;;;;;;;1.30;0.60;;;9.50;99.90;;;;;;5073879;28;20203;-75
2021/03/12 08:40:31;;;;;;;1.40;0.70;;;9.80;99.90;;;;;;5074181;28;20221;-75
2021/03/12 08:43:00;;;;;;;1.50;0.57;;;10.00;99.90;;;;;;5073566;28;20560;-75
2021/03/12 08:45:35;;;;;;;1.05;0.68;;;10.10;97.80;;;;;;5073618;28;20306;-74
2021/03/12 08:48:04;;;;;;;1.02;0.52;;;10.10;96.40;;;;;;5073788;28;20256;-75
2021/03/12 08:50:31;;;;;;;1.40;0.60;;;10.00;95.50;;;;;;5073946;28;20233;-75
2021/03/12 08:52:58;;;;;;;0.90;0.77;;;9.80;96.60;;;;;;5073471;28;20348;-74
2021/03/12 08:55:25;;;;;;;1.27;0.65;;;9.80;96.20;;;;;;5074063;28;20563;-75
2021/03/12 08:58:11;;;;;;;0.68;0.60;;;9.70;95.10;;;;;;5073580;28;20206;-75
2021/03/12 09:00:37;;;;;;;4.63;0.93;;;9.50;95.20;;;;;;5073756;28;20203;-75
2021/03/12 09:03:20;;;;;;;0.60;0.57;;;9.40;96.30;;;;;;5074079;28;20248;-75
2021/03/12 09:05:48;;;;;;;1.40;0.68;;;9.40;96.30;;;;;;5072700;28;20198;-75
2021/03/12 09:08:17;;;;;;;0.77;0.70;;;9.50;95.10;;;;;;5073405;28;20202;-75
2021/03/12 09:10:44;;;;;;;1.33;0.57;;;9.50;94.90;;;;;;5073753;28;20575;-75
2021/03/12 09:13:15;;;;;;;3.20;0.70;;;9.60;94.70;;;;;;5074250;28;20226;-75
2021/03/12 09:15:42;;;;;;;1.35;0.85;;;9.60;93.40;;;;;;5074172;28;20223;-75
2021/03/12 09:18:09;;;;;;;2.92;0.75;;;9.80;93.60;;;;;;5074642;28;20293;-75
2021/03/12 09:20:36;;;;;;;0.70;0.40;;;9.90;93.00;;;;;;5074210;28;20259;-75
2021/03/12 09:23:02;;;;;;;0.68;0.60;;;9.90;91.90;;;;;;5073833;28;20226;-75
2021/03/12 09:25:30;;;;;;;1.42;1.20;;;9.90;91.00;;;;;;5074252;28;20255;-75
2021/03/12 09:28:01;;;;;;;0.90;0.50;;;9.80;90.40;;;;;;5073401;28;20202;-75
2021/03/12 09:30:30;;;;;;;2.80;0.60;;;9.70;90.80;;;;;;5074009;28;20591;-75
2021/03/12 09:32:57;;;;;;;0.60;0.50;;;9.60;91.10;;;;;;5073251;28;20314;-76
2021/03/12 09:35:25;;;;;;;0.60;0.50;;;9.60;91.00;;;;;;5074040;28;20202;-75
2021/03/12 09:37:54;;;;;;;1.20;0.88;;;9.60;91.50;;;;;;5073656;28;20211;-75
2021/03/12 09:40:37;;;;;;;4.85;0.70;;;9.60;91.20;;;;;;5073136;28;20210;-75
2021/03/12 09:43:04;;;;;;;0.45;0.40;;;9.70;91.40;;;;;;5076614;28;20226;-75
2021/03/12 09:45:30;;;;;;;1.85;0.73;;;9.80;91.40;;;;;;5076940;28;20217;-75
2021/03/12 09:47:56;;;;;;;1.15;0.45;;;9.70;90.40;;;;;;5077006;28;20293;-74
2021/03/12 09:50:25;;;;;;;2.60;0.75;;;9.80;90.70;;;;;;5077297;28;20260;-75
2021/03/12 09:52:55;;;;;;;0.70;0.50;;;9.90;90.50;;;;;;5077522;28;20583;-74
2021/03/12 09:55:22;;;;;;;1.73;0.70;;;9.90;90.50;;;;;;5077453;28;20229;-74
2021/03/12 09:57:49;;;;;;;2.45;0.60;;;10.00;89.30;;;;;;5076601;28;20199;-75
2021/03/12 10:00:23;;;;;;;1.25;0.60;;;10.10;89.20;;;;;;5077025;28;20202;-75
2021/03/12 10:02:51;;;;;;;0.75;0.70;;;10.10;88.70;;;;;;5077026;28;20222;-75
2021/03/12 10:05:19;;;;;;;1.20;0.43;;;10.00;88.80;;;;;;5077094;28;20207;-75
2021/03/12 10:07:47;;;;;;;0.88;0.50;;;10.00;89.30;;;;;;5076988;28;20320;-75
2021/03/12 10:10:21;;;;;;;0.50;0.50;;;10.10;90.10;;;;;;5077242;28;20268;-75
2021/03/12 10:12:49;;;;;;;0.73;0.50;;;10.30;90.50;;;;;;5076765;28;20218;-74
2021/03/12 10:15:17;;;;;;;0.80;0.40;;;10.30;89.00;;;;;;5076644;28;20555;-75
2021/03/12 10:17:44;;;;;;;2.10;0.60;;;10.30;88.40;;;;;;5076622;28;20233;-75
2021/03/12 10:20:28;;;;;;;0.90;0.40;;;10.30;89.80;;;;;;5076873;28;20290;-75
2021/03/12 10:22:58;;;;;;;1.20;0.70;;;10.80;90.00;;;;;;5077845;28;20291;-75
2021/03/12 10:25:28;;;;;;;0.73;0.40;;;11.70;87.30;;;;;;5077583;28;20230;-75
2021/03/12 10:27:56;;;;;;;1.02;0.40;;;12.50;82.80;;;;;;5076377;28;20664;-75
2021/03/12 10:30:25;;;;;;;2.17;0.43;;;12.90;81.20;;;;;;5076809;28;20203;-75
2021/03/12 10:32:53;;;;;;;1.02;0.57;;;13.00;78.90;;;;;;5076500;28;20222;-75
2021/03/12 10:35:28;;;;;;;0.85;0.40;;;13.30;77.80;;;;;;5076745;28;20302;-75
2021/03/12 10:37:57;;;;;;;0.60;0.60;;;13.30;78.40;;;;;;5076248;28;20237;-75
2021/03/12 10:40:36;;;;;;;0.55;0.40;;;13.70;78.50;;;;;;5076893;28;20206;-79
2021/03/12 10:43:11;;;;;;;0.60;0.45;;;13.90;77.90;;;;;;5076729;28;20574;-75
2021/03/12 10:45:43;;;;;;;2.22;0.52;;;14.00;78.50;;;;;;5076322;28;20664;-75
2021/03/12 10:48:10;;;;;;;1.75;1.65;;;14.10;78.80;;;;;;5076196;28;20588;-75
2021/03/12 10:50:38;;;;;;;1.10;0.60;;;13.90;77.10;;;;;;5076441;28;20198;-75
2021/03/12 10:53:13;;;;;;;0.80;0.50;;;13.70;78.20;;;;;;5076256;28;20223;-75
2021/03/12 10:55:43;;;;;;;0.82;0.50;;;13.20;80.00;;;;;;5076899;28;20275;-75
2021/03/12 10:58:24;;;;;;;0.82;0.60;;;13.10;80.80;;;;;;5080276;28;20229;-75
2021/03/12 11:01:23;;;;;;;0.40;0.40;;;13.00;82.10;;;;;;5095158;28;20209;-74
2021/03/12 11:03:50;;;;;;;0.50;0.40;;;12.30;84.80;;;;;;5033368;28;20310;-74
2021/03/12 11:06:22;;;;;;;0.38;0.38;;;11.80;89.30;;;;;;5081723;28;20198;-74
2021/03/12 11:08:49;;;;;;;0.70;0.70;;;11.90;91.10;;;;;;5094657;28;20306;-72
2021/03/12 11:11:21;;;;;;;0.60;0.50;;;12.50;89.00;;;;;;5094258;28;20237;-72
2021/03/12 11:13:47;;;;;;;0.55;0.50;;;13.20;85.20;;;;;;5094603;28;20224;-73
2021/03/12 11:16:13;;;;;;;1.20;0.60;;;13.80;81.20;;;;;;5094155;28;20226;-76
2021/03/12 11:18:40;;;;;;;0.85;0.80;;;14.70;78.50;;;;;;5094257;28;20298;-76
2021/03/12 11:21:10;;;;;;;0.60;0.60;;;15.00;70.20;;;;;;5093826;28;20298;-73
2021/03/12 11:23:37;;;;;;;0.40;0.30;;;15.50;68.00;;;;;;5094528;28;20571;-74
2021/03/12 11:26:04;;;;;;;7.40;3.47;;;15.80;62.10;;;;;;5094126;28;20240;-74
2021/03/12 11:28:31;;;;;;;0.47;0.47;;;16.00;60.70;;;;;;5094342;28;20229;-74
2021/03/12 11:30:59;;;;;;;0.63;0.63;;;16.00;59.10;;;;;;5093757;28;20295;-74
2021/03/12 11:33:26;;;;;;;0.60;0.50;;;15.50;57.80;;;;;;5093923;28;20565;-73
2021/03/12 11:35:53;;;;;;;1.65;0.73;;;15.10;57.80;;;;;;5093945;28;20222;-73
2021/03/12 11:38:19;;;;;;;0.60;0.40;;;14.70;59.10;;;;;;5093802;28;20211;-72
2021/03/12 11:40:46;;;;;;;0.73;0.50;;;14.60;59.30;;;;;;5093869;28;20309;-72
2021/03/12 11:43:13;;;;;;;0.82;0.60;;;14.60;61.60;;;;;;5093667;28;20309;-72
2021/03/12 11:45:40;;;;;;;0.60;0.60;;;14.70;60.20;;;;;;5093860;28;20300;-72
2021/03/12 11:48:08;;;;;;;0.63;0.45;;;14.20;60.60;;;;;;5093656;28;20202;-72
2021/03/12 11:50:37;;;;;;;0.50;0.50;;;13.70;58.10;;;;;;5093669;28;20631;-72
2021/03/12 11:53:04;;;;;;;1.63;1.30;;;13.40;59.00;;;;;;5093438;28;20258;-73
2021/03/12 11:55:30;;;;;;;1.00;0.75;;;13.40;59.90;;;;;;5093386;28;20209;-71
2021/03/12 11:57:57;;;;;;;1.02;0.45;;;13.40;61.10;;;;;;5093372;28;20212;-72
2021/03/12 12:00:23;;;;;;;0.70;0.60;;;13.40;59.80;;;;;;5093479;28;20212;-70
2021/03/12 12:02:51;;;;;;;3.08;0.70;;;13.20;60.10;;;;;;5093245;28;20222;-73
2021/03/12 12:05:18;;;;;;;0.50;0.50;;;13.10;61.10;;;;;;5092568;28;20202;-72
2021/03/12 12:07:44;;;;;;;0.45;0.43;;;13.10;62.00;;;;;;5093559;28;20293;-70
2021/03/12 12:10:14;;;;;;;0.85;0.50;;;13.30;60.30;;;;;;5093204;28;20293;-72
2021/03/12 12:12:44;;;;;;;0.90;0.60;;;13.10;58.70;;;;;;5093274;28;20886;-70
2021/03/12 12:15:15;;;;;;;1.98;0.47;;;12.50;58.70;;;;;;5093030;28;20233;-72
2021/03/12 12:17:42;;;;;;;0.55;0.50;;;12.50;58.10;;;;;;5093228;28;20261;-70
2021/03/12 12:20:12;;;;;;;0.85;0.60;;;12.80;56.80;;;;;;5093120;28;20206;-71
2021/03/12 12:22:39;;;;;;;0.90;0.43;;;12.50;56.50;;;;;;5093139;28;20222;-71
2021/03/12 12:25:07;;;;;;;0.40;0.40;;;12.40;56.00;;;;;;5093071;28;20294;-71
2021/03/12 12:27:33;;;;;;;1.05;0.68;;;12.70;55.80;;;;;;5093259;28;20281;-71
2021/03/12 12:29:59;;;;;;;0.77;0.70;;;12.70;55.40;;;;;;5092925;28;20246;-72
2021/03/12 12:32:26;;;;;;;0.45;0.43;;;13.20;56.10;;;;;;5092890;28;20648;-72
2021/03/12 12:34:52;;;;;;;2.58;0.70;;;13.60;56.90;;;;;;5092951;28;20220;-72
2021/03/12 12:37:19;;;;;;;1.27;0.60;;;13.50;55.60;;;;;;5093089;28;20308;-73
2021/03/12 12:39:45;;;;;;;0.75;0.40;;;13.20;55.80;;;;;;5093138;28;20202;-74
2021/03/12 12:42:12;;;;;;;1.02;0.50;;;12.90;56.80;;;;;;5093275;28;20246;-75
2021/03/12 12:44:39;;;;;;;3.45;0.82;;;12.60;55.80;;;;;;5092959;28;20216;-74
2021/03/12 12:47:05;;;;;;;1.05;0.73;;;12.20;56.30;;;;;;5093507;28;20208;-74
2021/03/12 12:49:31;;;;;;;1.35;0.70;;;12.10;56.70;;;;;;5093306;28;20233;-74
2021/03/12 12:51:58;;;;;;;2.50;0.55;;;12.00;57.00;;;;;;5097161;28;20308;-77
2021/03/12 12:54:25;;;;;;;0.93;0.50;;;12.10;57.90;;;;;;5096062;28;20269;-76
2021/03/12 12:56:52;;;;;;;2.35;0.80;;;12.10;58.40;;;;;;5093997;28;20584;-72
2021/03/12 12:59:18;;;;;;;2.47;1.52;;;12.20;59.20;;;;;;5093331;28;20202;-71
2021/03/12 13:01:44;;;;;;;0.70;0.60;;;12.00;57.50;;;;;;5093405;28;20226;-72
2021/03/12 13:04:11;;;;;;;1.08;0.77;;;11.90;58.30;;;;;;5094692;28;20735;-74